createdAt,value
2019-01-25T00:02:00.585Z,22.80
2019-01-25T00:04:31.029Z,28.57
2019-01-25T00:07:01.409Z,26.80
2019-01-25T00:09:31.841Z,27.73
2019-01-25T00:12:02.275Z,31.53
2019-01-25T00:14:32.752Z,25.07
2019-01-25T00:17:03.197Z,31.63
2019-01-25T00:19:34.322Z,29.67
2019-01-25T00:22:04.999Z,15.23
2019-01-25T00:24:35.332Z,21.40
2019-01-25T00:27:05.627Z,30.77
2019-01-25T00:29:35.975Z,25.83
2019-01-25T00:32:06.727Z,25.97
2019-01-25T00:34:37.341Z,26.03
2019-01-25T00:37:07.998Z,27.73
2019-01-25T00:39:38.372Z,27.70
2019-01-25T00:42:08.941Z,27.27
2019-01-25T00:44:39.460Z,27.13
2019-01-25T00:47:10.573Z,24.13
2019-01-25T00:49:41.467Z,22.27
2019-01-25T00:52:12.045Z,20.90
2019-01-25T00:54:42.671Z,15.67
2019-01-25T00:57:13.179Z,23.80
2019-01-25T00:59:43.727Z,28.87
2019-01-25T01:02:14.301Z,30.30
2019-01-25T01:04:44.926Z,27.53
2019-01-25T01:07:15.413Z,27.97
2019-01-25T01:09:45.899Z,29.67
2019-01-25T01:12:16.488Z,25.27
2019-01-25T01:14:46.821Z,27.50
2019-01-25T01:17:17.226Z,27.67
2019-01-25T01:19:47.494Z,28.37
2019-01-25T01:22:17.821Z,29.37
2019-01-25T01:24:48.211Z,27.63
2019-01-25T01:27:18.669Z,22.97
2019-01-25T01:29:48.977Z,26.73
2019-01-25T01:32:19.523Z,28.47
2019-01-25T01:34:49.909Z,25.40
2019-01-25T01:37:20.201Z,30.43
2019-01-25T01:39:50.455Z,25.63
2019-01-25T01:42:20.925Z,28.33
2019-01-25T01:44:51.652Z,26.23
2019-01-25T01:47:22.047Z,29.57
2019-01-25T01:49:52.854Z,26.27
2019-01-25T01:52:23.718Z,27.83
2019-01-25T01:54:54.635Z,25.90
2019-01-25T01:57:25.339Z,28.50
2019-01-25T01:59:56.167Z,24.63
2019-01-25T02:02:26.903Z,18.87
2019-01-25T02:04:57.505Z,28.43
2019-01-25T02:07:28.022Z,27.03
2019-01-25T02:09:58.857Z,26.67
2019-01-25T02:12:29.345Z,22.53
2019-01-25T02:15:00.160Z,29.13
2019-01-25T02:17:30.749Z,29.73
2019-01-25T02:20:01.360Z,27.47
2019-01-25T02:22:31.926Z,24.37
2019-01-25T02:25:02.399Z,26.77
2019-01-25T02:27:32.885Z,28.73
2019-01-25T02:30:03.574Z,24.73
2019-01-25T02:32:34.039Z,27.90
2019-01-25T02:35:04.970Z,27.87
2019-01-25T02:37:35.735Z,26.57
2019-01-25T02:40:06.951Z,26.83
2019-01-25T02:42:37.582Z,29.03
2019-01-25T02:45:09.722Z,27.73
2019-01-25T02:47:40.551Z,25.50
2019-01-25T02:50:15.614Z,27.23
2019-01-25T02:52:46.039Z,25.53
2019-01-25T02:55:16.637Z,22.97
2019-01-25T02:57:47.346Z,17.50
2019-01-25T03:00:22.567Z,26.40
2019-01-25T03:02:53.739Z,29.53
2019-01-25T03:05:25.250Z,26.77
2019-01-25T03:07:55.677Z,29.37
2019-01-25T03:10:29.142Z,29.80
2019-01-25T03:12:58.160Z,28.17
2019-01-25T03:15:28.576Z,29.60
2019-01-25T03:17:59.192Z,34.13
2019-01-25T03:20:29.781Z,26.77
2019-01-25T03:23:00.166Z,29.67
2019-01-25T03:25:30.570Z,22.33
2019-01-25T03:28:00.984Z,28.90
2019-01-25T03:30:31.435Z,34.27
2019-01-25T03:33:02.039Z,28.47
2019-01-25T03:35:32.407Z,26.53
2019-01-25T03:38:02.928Z,34.27
2019-01-25T03:40:33.403Z,32.83
2019-01-25T03:43:04.156Z,29.17
2019-01-25T03:45:34.744Z,29.87
2019-01-25T03:48:05.111Z,33.73
2019-01-25T03:50:35.537Z,29.00
2019-01-25T03:53:05.882Z,30.67
2019-01-25T03:55:36.458Z,30.10
2019-01-25T03:58:07.008Z,31.77
2019-01-25T04:00:37.368Z,26.80
2019-01-25T04:03:07.718Z,31.13
2019-01-25T04:05:38.141Z,31.77
2019-01-25T04:08:08.848Z,22.87
2019-01-25T04:10:39.346Z,30.77
2019-01-25T04:13:09.854Z,29.10
2019-01-25T04:15:40.623Z,32.17
2019-01-25T04:18:11.882Z,29.27
2019-01-25T04:20:42.188Z,33.70
2019-01-25T04:23:12.458Z,31.60
2019-01-25T04:25:42.766Z,34.43
2019-01-25T04:28:13.244Z,28.50
2019-01-25T04:30:43.690Z,30.13
2019-01-25T04:33:14.300Z,27.03
2019-01-25T04:35:44.543Z,27.87
2019-01-25T04:38:15.072Z,35.97
2019-01-25T04:40:45.291Z,32.23
2019-01-25T04:43:15.693Z,30.80
2019-01-25T04:45:46.780Z,34.17
2019-01-25T04:48:17.152Z,24.33
2019-01-25T04:50:47.509Z,24.60
2019-01-25T04:53:18.140Z,32.67
2019-01-25T04:55:48.565Z,35.63
2019-01-25T04:58:19.788Z,28.63
2019-01-25T05:00:50.080Z,33.47
2019-01-25T05:03:22.874Z,29.87
2019-01-25T05:05:53.608Z,34.70
2019-01-25T05:08:24.066Z,34.20
2019-01-25T05:10:54.486Z,29.03
2019-01-25T05:13:24.853Z,31.80
2019-01-25T05:15:55.226Z,32.20
2019-01-25T05:18:25.674Z,26.03
2019-01-25T05:20:55.991Z,29.23
2019-01-25T05:23:26.437Z,26.07
2019-01-25T05:25:56.865Z,24.77
2019-01-25T05:28:27.218Z,27.17
2019-01-25T05:31:02.493Z,29.10
2019-01-25T05:33:33.312Z,26.03
2019-01-25T05:36:03.832Z,30.03
2019-01-25T05:38:34.575Z,31.63
2019-01-25T05:41:05.230Z,27.27
2019-01-25T05:43:40.571Z,28.40
2019-01-25T05:46:11.065Z,31.47
2019-01-25T05:48:41.851Z,28.50
2019-01-25T05:51:12.632Z,32.17
2019-01-25T05:53:52.894Z,28.60
2019-01-25T05:56:23.882Z,30.97
2019-01-25T05:58:54.565Z,33.77
2019-01-25T06:01:26.409Z,32.83
2019-01-25T06:03:57.098Z,31.83
2019-01-25T06:06:27.676Z,26.40
2019-01-25T06:08:58.025Z,29.73
2019-01-25T06:11:35.252Z,30.13
2019-01-25T06:14:00.821Z,23.40
2019-01-25T06:16:31.523Z,27.80
2019-01-25T06:19:02.419Z,32.87
2019-01-25T06:21:33.026Z,31.83
2019-01-25T06:24:03.482Z,30.57
2019-01-25T06:26:34.281Z,32.20
2019-01-25T06:29:04.845Z,33.33
2019-01-25T06:31:35.288Z,31.53
2019-01-25T06:34:05.755Z,31.73
2019-01-25T06:36:36.590Z,30.83
2019-01-25T06:39:09.514Z,34.43
2019-01-25T06:41:44.106Z,27.60
2019-01-25T06:44:12.188Z,33.97
2019-01-25T06:46:42.930Z,25.37
2019-01-25T06:49:13.245Z,35.43
2019-01-25T06:51:43.926Z,22.27
2019-01-25T06:54:14.380Z,26.73
2019-01-25T06:56:45.430Z,29.20
2019-01-25T06:59:18.644Z,23.13
2019-01-25T07:02:08.278Z,39.30
2019-01-25T07:04:38.553Z,29.83
2019-01-25T07:07:17.782Z,27.57
2019-01-25T07:09:49.764Z,29.93
2019-01-25T07:12:20.496Z,34.97
2019-01-25T07:14:51.525Z,33.80
2019-01-25T07:17:22.580Z,41.17
2019-01-25T07:19:53.936Z,35.80
2019-01-25T07:22:25.554Z,33.40
2019-01-25T07:24:57.321Z,33.63
2019-01-25T07:27:28.120Z,29.00
2019-01-25T07:29:58.513Z,38.03
2019-01-25T07:32:28.896Z,41.17
2019-01-25T07:34:59.484Z,48.50
2019-01-25T07:37:29.800Z,31.57
2019-01-25T07:40:00.454Z,40.27
2019-01-25T07:42:31.108Z,38.70
2019-01-25T07:45:01.636Z,37.70
2019-01-25T07:47:33.440Z,38.07
2019-01-25T07:50:04.019Z,39.40
2019-01-25T07:52:34.477Z,37.03
2019-01-25T07:55:05.296Z,38.30
2019-01-25T07:57:35.704Z,37.90
2019-01-25T08:00:06.333Z,37.83
2019-01-25T08:02:37.126Z,40.27
2019-01-25T08:05:08.159Z,39.70
2019-01-25T08:07:38.761Z,31.40
2019-01-25T08:10:11.877Z,38.57
2019-01-25T08:12:42.566Z,31.20
2019-01-25T08:15:15.220Z,34.03
2019-01-25T08:17:45.646Z,31.77
2019-01-25T08:20:16.388Z,35.80
2019-01-25T08:22:46.933Z,35.73
2019-01-25T08:25:17.650Z,34.93
2019-01-25T08:27:49.047Z,32.30
2019-01-25T08:30:19.966Z,34.57
2019-01-25T08:32:51.633Z,39.40
2019-01-25T08:35:22.525Z,38.30
2019-01-25T08:37:53.142Z,34.80
2019-01-25T08:40:24.053Z,33.90
2019-01-25T08:42:54.515Z,38.50
2019-01-25T08:45:24.892Z,31.47
2019-01-25T08:47:55.335Z,34.97
2019-01-25T08:50:26.066Z,39.17
2019-01-25T08:52:56.593Z,38.23
2019-01-25T08:55:26.960Z,38.60
2019-01-25T08:57:57.481Z,42.83
2019-01-25T09:00:28.120Z,38.07
2019-01-25T09:02:58.695Z,43.47
2019-01-25T09:05:28.972Z,39.23
2019-01-25T09:07:59.400Z,38.03
2019-01-25T09:10:29.965Z,31.47
2019-01-25T09:13:00.401Z,28.93
2019-01-25T09:15:31.418Z,31.87
2019-01-25T09:18:02.157Z,30.10
2019-01-25T09:20:32.820Z,29.00
2019-01-25T09:23:03.477Z,38.87
2019-01-25T09:25:34.150Z,35.43
2019-01-25T09:28:05.156Z,33.07
2019-01-25T09:30:35.708Z,36.07
2019-01-25T09:33:06.510Z,32.37
2019-01-25T09:35:37.422Z,31.97
2019-01-25T09:38:08.133Z,27.20
2019-01-25T09:40:38.505Z,32.43
2019-01-25T09:43:09.127Z,28.27
2019-01-25T09:45:39.949Z,34.17
2019-01-25T09:48:10.789Z,35.67
2019-01-25T09:50:41.461Z,31.73
2019-01-25T09:53:12.258Z,27.93
2019-01-25T09:55:42.887Z,30.43
2019-01-25T09:58:15.550Z,28.93
2019-01-25T10:00:52.757Z,34.63
2019-01-25T10:03:23.211Z,30.17
2019-01-25T10:05:53.554Z,30.13
2019-01-25T10:08:24.012Z,36.17
2019-01-25T10:10:54.278Z,38.97
2019-01-25T10:13:25.255Z,34.53
2019-01-25T10:15:55.863Z,31.10
2019-01-25T10:18:26.159Z,35.67
2019-01-25T10:20:56.519Z,25.23
2019-01-25T10:23:27.409Z,33.63
2019-01-25T10:25:58.029Z,41.07
2019-01-25T10:28:28.663Z,32.67
2019-01-25T10:30:59.362Z,41.10
2019-01-25T10:33:29.823Z,21.77
2019-01-25T10:36:01.099Z,24.80
2019-01-25T10:38:31.976Z,39.27
2019-01-25T10:41:02.684Z,29.67
2019-01-25T10:43:33.179Z,32.10
2019-01-25T10:46:03.587Z,29.53
2019-01-25T10:48:34.166Z,32.17
2019-01-25T10:51:04.722Z,36.67
2019-01-25T10:53:35.297Z,40.20
2019-01-25T10:56:05.623Z,26.60
2019-01-25T10:58:36.003Z,32.37
2019-01-25T11:01:07.500Z,32.83
2019-01-25T11:03:38.129Z,35.60
2019-01-25T11:06:08.737Z,40.83
2019-01-25T11:08:39.204Z,34.33
2019-01-25T11:11:09.485Z,31.33
2019-01-25T11:13:39.907Z,26.97
2019-01-25T11:16:12.071Z,28.23
2019-01-25T11:18:42.639Z,29.47
2019-01-25T11:21:14.051Z,41.87
2019-01-25T11:23:44.429Z,31.17
2019-01-25T11:26:15.044Z,35.07
2019-01-25T11:28:45.929Z,25.43
2019-01-25T11:31:16.540Z,34.83
2019-01-25T11:33:47.055Z,29.47
2019-01-25T11:36:17.439Z,24.07
2019-01-25T11:38:48.000Z,34.33
2019-01-25T11:41:18.287Z,26.27
2019-01-25T11:43:48.653Z,38.07
2019-01-25T11:46:19.118Z,39.23
2019-01-25T11:48:49.994Z,33.77
2019-01-25T11:51:20.336Z,36.20
2019-01-25T11:53:50.586Z,35.03
2019-01-25T11:56:22.727Z,28.93
2019-01-25T11:58:53.195Z,47.83
2019-01-25T12:01:24.879Z,28.30
2019-01-25T12:03:55.436Z,39.30
2019-01-25T12:06:27.003Z,26.53
2019-01-25T12:08:57.735Z,42.33
2019-01-25T12:11:28.082Z,36.20
2019-01-25T12:13:58.541Z,35.20
2019-01-25T12:16:29.151Z,36.17
2019-01-25T12:18:59.963Z,33.63
2019-01-25T12:21:30.333Z,49.80
2019-01-25T12:24:00.589Z,42.60
2019-01-25T12:26:31.237Z,40.27
2019-01-25T12:29:01.934Z,37.43
2019-01-25T12:31:32.289Z,43.33
2019-01-25T12:34:02.960Z,44.17
2019-01-25T12:36:33.610Z,43.37
2019-01-25T12:39:05.831Z,35.57
2019-01-25T12:41:36.357Z,37.17
2019-01-25T12:44:06.888Z,32.17
2019-01-25T12:46:38.321Z,35.57
2019-01-25T12:49:08.820Z,34.40
2019-01-25T12:51:54.390Z,36.20
2019-01-25T12:54:24.991Z,29.43
2019-01-25T12:56:55.415Z,29.23
2019-01-25T12:59:27.317Z,23.87
2019-01-25T13:01:59.319Z,33.80
2019-01-25T13:04:29.874Z,35.73
2019-01-25T13:07:00.315Z,36.07
2019-01-25T13:09:30.965Z,29.33
2019-01-25T13:12:01.609Z,29.33
2019-01-25T13:14:31.957Z,29.57
2019-01-25T13:17:02.329Z,15.67
2019-01-25T13:19:32.989Z,29.03
2019-01-25T13:22:03.349Z,31.53
2019-01-25T13:24:33.864Z,32.87
2019-01-25T13:27:04.645Z,28.07
2019-01-25T13:29:35.583Z,30.07
2019-01-25T13:32:07.091Z,23.83
2019-01-25T13:34:37.839Z,19.73
2019-01-25T13:37:08.510Z,28.60
2019-01-25T13:39:39.449Z,36.10
2019-01-25T13:42:10.157Z,27.53
2019-01-25T13:44:40.846Z,29.23
2019-01-25T13:47:11.323Z,28.47
2019-01-25T13:49:42.231Z,23.47
2019-01-25T13:52:12.832Z,35.90
2019-01-25T13:54:43.557Z,29.20
2019-01-25T13:57:14.113Z,43.90
2019-01-25T13:59:44.520Z,39.90
2019-01-25T14:02:14.929Z,34.63
2019-01-25T14:04:45.393Z,41.37
2019-01-25T14:07:15.673Z,39.97
2019-01-25T14:09:46.061Z,33.33
2019-01-25T14:12:16.725Z,51.93
2019-01-25T14:14:48.962Z,32.07
2019-01-25T14:17:19.541Z,44.50
2019-01-25T14:19:50.073Z,41.17
2019-01-25T14:22:20.569Z,42.13
2019-01-25T14:24:51.283Z,35.93
2019-01-25T14:27:21.646Z,40.70
2019-01-25T14:29:52.317Z,37.77
2019-01-25T14:32:22.693Z,50.53
2019-01-25T14:34:53.243Z,46.20
2019-01-25T14:37:23.925Z,42.20
2019-01-25T14:39:54.426Z,36.23
2019-01-25T14:42:25.263Z,29.23
2019-01-25T14:44:55.875Z,40.53
2019-01-25T14:47:26.468Z,33.13
2019-01-25T14:49:58.026Z,49.90
2019-01-25T14:52:28.453Z,30.30
2019-01-25T14:54:59.225Z,41.00
2019-01-25T14:57:29.780Z,34.93
2019-01-25T15:00:00.290Z,33.43
2019-01-25T15:02:30.698Z,46.63
2019-01-25T15:05:01.689Z,52.20
2019-01-25T15:07:32.446Z,49.97
2019-01-25T15:10:03.342Z,49.50
2019-01-25T15:12:35.625Z,32.73
2019-01-25T15:15:07.667Z,37.73
2019-01-25T15:17:38.264Z,47.40
2019-01-25T15:20:11.417Z,35.70
2019-01-25T15:22:41.967Z,34.03
2019-01-25T15:25:12.686Z,27.57
2019-01-25T15:27:43.192Z,23.13
2019-01-25T15:30:25.144Z,42.47
2019-01-25T15:32:55.800Z,50.17
2019-01-25T15:35:26.270Z,37.90
2019-01-25T15:37:56.706Z,40.10
2019-01-25T15:40:27.179Z,44.10
2019-01-25T15:42:57.862Z,49.10
2019-01-25T15:45:28.568Z,36.50
2019-01-25T15:47:59.002Z,42.03
2019-01-25T15:50:33.392Z,44.53
2019-01-25T15:53:04.232Z,46.80
2019-01-25T15:55:34.823Z,25.97
2019-01-25T15:58:05.402Z,42.73
2019-01-25T16:00:36.133Z,23.00
2019-01-25T16:03:07.336Z,34.70
2019-01-25T16:05:37.865Z,44.37
2019-01-25T16:08:08.389Z,39.73
2019-01-25T16:10:39.010Z,42.00
2019-01-25T16:13:09.585Z,37.00
2019-01-25T16:15:43.379Z,42.07
2019-01-25T16:18:14.008Z,32.23
2019-01-25T16:20:44.415Z,28.23
2019-01-25T16:23:15.212Z,38.27
2019-01-25T16:25:45.669Z,39.47
2019-01-25T16:28:16.092Z,46.10
2019-01-25T16:30:46.478Z,28.93
2019-01-25T16:33:17.221Z,45.57
2019-01-25T16:35:47.626Z,49.80
2019-01-25T16:38:18.211Z,50.57
2019-01-25T16:40:48.593Z,49.83
2019-01-25T16:43:18.901Z,51.73
2019-01-25T16:45:49.458Z,49.70
2019-01-25T16:48:20.120Z,46.30
2019-01-25T16:50:50.876Z,47.50
2019-01-25T16:53:21.670Z,34.47
2019-01-25T16:55:52.184Z,47.53
2019-01-25T16:58:23.093Z,47.50
2019-01-25T17:00:53.509Z,45.30
2019-01-25T17:03:23.930Z,45.67
2019-01-25T17:05:54.701Z,43.20
2019-01-25T17:08:25.465Z,48.93
2019-01-25T17:10:56.024Z,51.63
2019-01-25T17:13:26.453Z,47.17
2019-01-25T17:15:57.175Z,36.17
2019-01-25T17:18:28.135Z,45.73
2019-01-25T17:20:58.648Z,39.73
2019-01-25T17:23:29.336Z,26.00
2019-01-25T17:25:59.710Z,46.77
2019-01-25T17:28:30.210Z,40.70
2019-01-25T17:31:00.770Z,36.10
2019-01-25T17:33:31.656Z,42.13
2019-01-25T17:36:02.248Z,34.07
2019-01-25T17:38:32.722Z,34.97
2019-01-25T17:41:03.424Z,26.20
2019-01-25T17:43:33.807Z,44.73
2019-01-25T17:46:04.223Z,46.57
2019-01-25T17:48:34.716Z,41.70
2019-01-25T17:51:05.479Z,42.43
2019-01-25T17:53:35.912Z,44.37
2019-01-25T17:56:06.539Z,37.30
2019-01-25T17:58:37.548Z,43.40
2019-01-25T18:01:08.256Z,37.17
2019-01-25T18:03:39.032Z,48.73
2019-01-25T18:06:10.773Z,45.10
2019-01-25T18:08:41.292Z,36.50
2019-01-25T18:11:11.782Z,41.70
2019-01-25T18:13:42.494Z,47.73
2019-01-25T18:16:13.240Z,45.40
2019-01-25T18:18:43.829Z,49.53
2019-01-25T18:21:14.340Z,44.17
2019-01-25T18:23:45.107Z,40.67
2019-01-25T18:26:19.285Z,48.53
2019-01-25T18:29:00.633Z,52.23
2019-01-25T18:31:32.591Z,48.20
2019-01-25T18:34:03.644Z,43.00
2019-01-25T18:36:34.570Z,35.60
2019-01-25T18:39:08.270Z,46.87
2019-01-25T18:41:38.940Z,34.57
2019-01-25T18:44:09.622Z,48.00
2019-01-25T18:46:40.622Z,45.47
2019-01-25T18:49:11.500Z,40.00
2019-01-25T18:51:42.186Z,43.27
2019-01-25T18:54:12.988Z,40.17
2019-01-25T18:56:48.872Z,48.80
2019-01-25T18:59:19.617Z,49.00
2019-01-25T19:01:50.136Z,49.37
2019-01-25T19:04:20.830Z,48.07
2019-01-25T19:06:51.273Z,51.73
2019-01-25T19:09:22.752Z,52.33
2019-01-25T19:11:53.062Z,49.60
2019-01-25T19:14:23.628Z,52.17
2019-01-25T19:16:54.405Z,41.83
2019-01-25T19:19:25.382Z,49.70
2019-01-25T19:21:56.349Z,50.07
2019-01-25T19:24:26.698Z,52.83
2019-01-25T19:26:57.651Z,50.77
2019-01-25T19:29:28.510Z,50.17
2019-01-25T19:31:59.092Z,51.63
2019-01-25T19:34:29.707Z,47.43
2019-01-25T19:37:00.168Z,50.87
2019-01-25T19:39:30.766Z,51.23
2019-01-25T19:42:01.758Z,53.33
2019-01-25T19:44:32.962Z,50.93
2019-01-25T19:47:03.696Z,45.73
2019-01-25T19:49:34.223Z,47.30
2019-01-25T19:52:04.820Z,46.33
2019-01-25T19:54:35.757Z,50.03
2019-01-25T19:57:06.478Z,36.30
2019-01-25T19:59:37.113Z,46.13
2019-01-25T20:02:07.810Z,49.67
2019-01-25T20:04:38.507Z,48.37
2019-01-25T20:07:09.266Z,51.43
2019-01-25T20:09:40.053Z,47.53
2019-01-25T20:12:10.916Z,53.70
2019-01-25T20:14:41.305Z,48.60
2019-01-25T20:17:12.174Z,50.40
2019-01-25T20:19:42.921Z,50.97
2019-01-25T20:22:13.847Z,46.07
2019-01-25T20:24:44.362Z,49.73
2019-01-25T20:27:15.328Z,40.63
2019-01-25T20:29:46.061Z,50.73
2019-01-25T20:32:16.503Z,48.43
2019-01-25T20:34:46.986Z,48.90
2019-01-25T20:37:17.914Z,50.03
2019-01-25T20:39:48.475Z,49.83
2019-01-25T20:42:19.021Z,48.53
2019-01-25T20:44:49.758Z,51.77
2019-01-25T20:47:21.144Z,50.40
2019-01-25T20:49:51.408Z,48.60
2019-01-25T20:52:22.191Z,47.97
2019-01-25T20:54:52.631Z,49.07
2019-01-25T20:57:23.275Z,48.90
2019-01-25T20:59:53.800Z,48.37
2019-01-25T21:02:24.398Z,50.13
2019-01-25T21:04:55.555Z,49.50
2019-01-25T21:07:26.886Z,46.83
2019-01-25T21:09:58.476Z,49.23
2019-01-25T21:12:29.260Z,45.23
2019-01-25T21:14:59.930Z,48.03
2019-01-25T21:17:30.524Z,46.00
2019-01-25T21:20:01.300Z,48.97
2019-01-25T21:22:32.477Z,49.67
2019-01-25T21:25:03.148Z,50.90
2019-01-25T21:27:33.983Z,52.47
2019-01-25T21:30:05.170Z,51.10
2019-01-25T21:32:35.940Z,53.27
2019-01-25T21:35:07.398Z,50.27
2019-01-25T21:37:39.077Z,52.30
2019-01-25T21:40:12.545Z,52.53
2019-01-25T21:42:43.086Z,56.20
2019-01-25T21:45:15.843Z,64.43
2019-01-25T21:47:46.348Z,59.23
2019-01-25T21:50:18.950Z,55.53
2019-01-25T21:52:49.661Z,68.03
2019-01-25T21:55:21.226Z,63.73
2019-01-25T21:57:51.740Z,50.83
2019-01-25T22:00:25.800Z,70.90
2019-01-25T22:02:56.451Z,69.97
2019-01-25T22:05:26.913Z,75.73
2019-01-25T22:07:57.199Z,74.40
2019-01-25T22:10:30.138Z,66.53
2019-01-25T22:13:00.802Z,67.23
2019-01-25T22:15:31.348Z,68.17
2019-01-25T22:18:01.669Z,63.97
2019-01-25T22:20:32.102Z,64.20
2019-01-25T22:23:03.449Z,58.77
2019-01-25T22:25:34.064Z,61.33
2019-01-25T22:28:04.712Z,59.53
2019-01-25T22:30:34.966Z,66.43
2019-01-25T22:33:05.353Z,66.57
2019-01-25T22:35:35.697Z,67.20
2019-01-25T22:38:06.401Z,75.73
2019-01-25T22:40:36.992Z,77.50
2019-01-25T22:43:07.404Z,58.17
2019-01-25T22:45:37.910Z,75.20
2019-01-25T22:48:08.596Z,69.00
2019-01-25T22:50:38.901Z,69.40
2019-01-25T22:53:09.207Z,69.97
2019-01-25T22:55:39.650Z,72.40
2019-01-25T22:58:09.946Z,72.53
2019-01-25T23:00:57.114Z,64.97
2019-01-25T23:03:41.700Z,66.23
2019-01-25T23:06:34.793Z,59.03
2019-01-25T23:09:15.903Z,66.33
2019-01-25T23:11:46.344Z,64.00
2019-01-25T23:14:16.860Z,70.17
2019-01-25T23:16:47.359Z,67.17
2019-01-25T23:19:17.821Z,70.03
2019-01-25T23:21:48.272Z,65.70
2019-01-25T23:24:18.668Z,74.80
2019-01-25T23:26:51.025Z,74.87
2019-01-25T23:29:21.652Z,75.57
2019-01-25T23:31:52.135Z,72.23
2019-01-25T23:34:22.808Z,73.90
2019-01-25T23:36:53.522Z,74.83
2019-01-25T23:39:24.204Z,73.33
2019-01-25T23:41:54.583Z,75.57
2019-01-25T23:44:25.367Z,82.00
2019-01-25T23:46:56.072Z,74.13
2019-01-25T23:49:26.659Z,72.47
2019-01-25T23:51:57.331Z,76.60
2019-01-25T23:54:29.052Z,73.60
2019-01-25T23:56:59.501Z,78.50
2019-01-25T23:59:29.839Z,78.70
